Time;durP1;ratioP1;P1;durP2;ratioP2;P2;SDS_P1;SDS_P2;PMS_P1;PMS_P2;Temp;Humidity;BMP_temperature;BMP_pressure;BME280_temperature;BME280_humidity;BME280_pressure;Samples;Min_cycle;Max_cycle;Signal;HPM_P1;HPM_P2
2023/10/26 00:00:38;;;;;;;;;;;;;;;;;;1926577;28;7041;-64
2023/10/26 00:01:35;;;;;;;;;;;;;;;;;;1926608;28;8054;-64
2023/10/26 00:02:33;;;;;;;;;;;;;;;;;;1927157;28;7013;-66
2023/10/26 00:03:30;;;;;;;;;;;;;;;;;;1927071;28;7013;-65
2023/10/26 00:04:28;;;;;;;;;;;;;;;;;;1926224;28;7009;-65
2023/10/26 00:05:26;;;;;;;;;;;;;;;;;;1926680;28;8014;-64
2023/10/26 00:06:23;;;;;;;;;;;;;;;;;;1926127;28;7981;-65
2023/10/26 00:07:20;;;;;;;;;;;;;;;;;;1926508;28;7009;-65
2023/10/26 00:08:18;;;;;;;;;;;;;;;;;;1927183;28;7013;-65
2023/10/26 00:09:15;;;;;;;;;;;;;;;;;;1926526;28;7346;-65
2023/10/26 00:10:13;;;;;;;;;;;;;;;;;;1926913;28;8055;-64
2023/10/26 00:11:11;;;;;;;;;;;;;;;;;;1926719;28;7005;-64
2023/10/26 00:12:08;;;;;;;;;;;;;;;;;;1924361;28;7142;-65
2023/10/26 00:13:06;;;;;;;;;;;;;;;;;;1926675;28;7118;-65
2023/10/26 00:14:05;;;;;;;;;;;;;;;;;;1926562;28;8675;-64
2023/10/26 00:15:03;;;;;;;;;;;;;;;;;;1927083;28;8111;-64
2023/10/26 00:16:00;;;;;;;;;;;;;;;;;;1926519;28;7049;-65
2023/10/26 00:16:58;;;;;;;;;;;;;;;;;;1927025;28;7013;-64
2023/10/26 00:17:55;;;;;;;;;;;;;;;;;;1926825;28;8011;-65
2023/10/26 00:18:53;;;;;;;;;;;;;;;;;;1926216;28;7009;-64
2023/10/26 00:19:52;;;;;;;;;;;;;;;;;;1926854;28;7116;-65
2023/10/26 00:20:55;;;;;;;;;;;;;;;;;;1926701;28;7021;-65
2023/10/26 00:21:53;;;;;;;;;;;;;;;;;;1926206;28;7113;-64
2023/10/26 00:22:50;;;;;;;;;;;;;;;;;;1926711;28;7013;-64
2023/10/26 00:23:48;;;;;;;;;;;;;;;;;;1924892;28;7013;-65
2023/10/26 00:24:45;;;;;;;;;;;;;;;;;;1920930;28;7105;-65
2023/10/26 00:25:43;;;;;;;;;;;;;;;;;;1921800;28;7012;-65
2023/10/26 00:26:40;;;;;;;;;;;;;;;;;;1919033;28;7017;-65
2023/10/26 00:27:40;;;;;;;;;;;;;;;;;;1922357;28;8066;-65
2023/10/26 00:28:39;;;;;;;;;;;;;;;;;;1928195;28;7169;-65
2023/10/26 00:29:37;;;;;;;;;;;;;;;;;;1927764;28;7055;-65
2023/10/26 00:30:34;;;;;;;;;;;;;;;;;;1928543;28;8023;-64
2023/10/26 00:31:32;;;;;;;;;;;;;;;;;;1928403;28;8110;-64
2023/10/26 00:32:29;;;;;;;;;;;;;;;;;;1929073;28;7009;-65
2023/10/26 00:33:27;;;;;;;;;;;;;;;;;;1928397;28;7943;-64
2023/10/26 00:34:24;;;;;;;;;;;;;;;;;;1926843;28;7192;-64
2023/10/26 00:35:22;;;;;;;;;;;;;;;;;;1927949;28;7888;-65
2023/10/26 00:36:19;;;;;;;;;;;;;;;;;;1928021;28;7100;-64
2023/10/26 00:37:17;;;;;;;;;;;;;;;;;;1927817;28;7017;-65
2023/10/26 00:38:14;;;;;;;;;;;;;;;;;;1928359;28;7970;-64
2023/10/26 00:39:12;;;;;;;;;;;;;;;;;;1929042;28;7228;-65
2023/10/26 00:40:09;;;;;;;;;;;;;;;;;;1927996;28;7099;-65
2023/10/26 00:41:07;;;;;;;;;;;;;;;;;;1928240;28;7127;-65
2023/10/26 00:42:05;;;;;;;;;;;;;;;;;;1927399;28;7013;-65
2023/10/26 00:43:04;;;;;;;;;;;;;;;;;;1928292;28;7017;-64
2023/10/26 00:44:02;;;;;;;;;;;;;;;;;;1927820;28;7130;-65
2023/10/26 00:44:59;;;;;;;;;;;;;;;;;;1928174;28;7009;-65
2023/10/26 00:45:57;;;;;;;;;;;;;;;;;;1928835;28;7049;-65
2023/10/26 00:46:55;;;;;;;;;;;;;;;;;;1928580;28;8101;-65
2023/10/26 00:47:52;;;;;;;;;;;;;;;;;;1928132;28;7034;-65
2023/10/26 00:48:51;;;;;;;;;;;;;;;;;;1928086;28;8009;-64
2023/10/26 00:49:49;;;;;;;;;;;;;;;;;;1928030;28;7093;-65
2023/10/26 00:50:50;;;;;;;;;;;;;;;;;;1928384;28;7041;-65
2023/10/26 00:51:51;;;;;;;;;;;;;;;;;;1928842;28;7025;-65
2023/10/26 00:52:49;;;;;;;;;;;;;;;;;;1927763;28;7103;-65
2023/10/26 00:53:48;;;;;;;;;;;;;;;;;;1926121;28;7045;-64
2023/10/26 00:54:45;;;;;;;;;;;;;;;;;;1927942;28;7009;-64
2023/10/26 00:55:46;;;;;;;;;;;;;;;;;;1927857;28;7009;-65
2023/10/26 00:56:44;;;;;;;;;;;;;;;;;;1927624;28;7092;-64
2023/10/26 00:57:41;;;;;;;;;;;;;;;;;;1924762;28;7009;-64
2023/10/26 00:58:40;;;;;;;;;;;;;;;;;;1927860;28;7033;-65
2023/10/26 00:59:39;;;;;;;;;;;;;;;;;;1924471;28;7028;-64
2023/10/26 01:00:37;;;;;;;;;;;;;;;;;;1925843;28;8037;-64
2023/10/26 01:01:34;;;;;;;;;;;;;;;;;;1928201;28;8000;-65
2023/10/26 01:02:32;;;;;;;;;;;;;;;;;;1927462;28;7029;-64
2023/10/26 01:03:30;;;;;;;;;;;;;;;;;;1922993;28;7057;-65
2023/10/26 01:04:28;;;;;;;;;;;;;;;;;;1926762;28;7058;-65
2023/10/26 01:05:26;;;;;;;;;;;;;;;;;;1928686;28;7112;-65
2023/10/26 01:06:23;;;;;;;;;;;;;;;;;;1928344;28;7057;-65
2023/10/26 01:07:21;;;;;;;;;;;;;;;;;;1928427;28;7108;-64
2023/10/26 01:08:19;;;;;;;;;;;;;;;;;;1928255;28;7262;-64
2023/10/26 01:09:16;;;;;;;;;;;;;;;;;;1928036;28;7017;-64
2023/10/26 01:10:14;;;;;;;;;;;;;;;;;;1927388;28;7315;-64
2023/10/26 01:11:12;;;;;;;;;;;;;;;;;;1928434;28;8075;-65
2023/10/26 01:12:10;;;;;;;;;;;;;;;;;;1928055;28;8184;-65
2023/10/26 01:13:08;;;;;;;;;;;;;;;;;;1925619;28;7319;-65
2023/10/26 01:14:07;;;;;;;;;;;;;;;;;;1925140;28;7092;-65
2023/10/26 01:15:05;;;;;;;;;;;;;;;;;;1928147;28;7054;-65
2023/10/26 01:16:04;;;;;;;;;;;;;;;;;;1927895;28;7053;-65
2023/10/26 01:17:02;;;;;;;;;;;;;;;;;;1926717;28;7041;-66
2023/10/26 01:17:59;;;;;;;;;;;;;;;;;;1927839;28;7065;-65
2023/10/26 01:18:58;;;;;;;;;;;;;;;;;;1927948;28;7998;-65
2023/10/26 01:19:56;;;;;;;;;;;;;;;;;;1928102;28;7044;-65
2023/10/26 01:20:54;;;;;;;;;;;;;;;;;;1927925;28;7017;-65
2023/10/26 01:21:52;;;;;;;;;;;;;;;;;;1927742;28;7054;-66
2023/10/26 01:22:50;;;;;;;;;;;;;;;;;;1928159;28;7017;-65
2023/10/26 01:23:48;;;;;;;;;;;;;;;;;;1928222;28;7013;-66
2023/10/26 01:24:45;;;;;;;;;;;;;;;;;;1927847;28;7033;-66
2023/10/26 01:25:48;;;;;;;;;;;;;;;;;;1928156;28;7009;-66
2023/10/26 01:26:46;;;;;;;;;;;;;;;;;;1928050;28;7017;-65
2023/10/26 01:27:43;;;;;;;;;;;;;;;;;;1928323;28;8044;-66
2023/10/26 01:28:41;;;;;;;;;;;;;;;;;;1927776;28;7009;-66
2023/10/26 01:29:38;;;;;;;;;;;;;;;;;;1927642;28;7136;-66
2023/10/26 01:30:36;;;;;;;;;;;;;;;;;;1926186;28;7108;-65
2023/10/26 01:31:33;;;;;;;;;;;;;;;;;;1927297;28;7196;-65
2023/10/26 01:32:31;;;;;;;;;;;;;;;;;;1927442;28;7036;-67
2023/10/26 01:33:28;;;;;;;;;;;;;;;;;;1928227;28;7147;-67
2023/10/26 01:34:26;;;;;;;;;;;;;;;;;;1927727;28;7013;-66
2023/10/26 01:35:23;;;;;;;;;;;;;;;;;;1927868;28;7092;-65
2023/10/26 01:36:21;;;;;;;;;;;;;;;;;;1927947;28;7172;-65
2023/10/26 01:37:18;;;;;;;;;;;;;;;;;;1928675;28;7144;-65
2023/10/26 01:38:16;;;;;;;;;;;;;;;;;;1926108;28;7125;-67
2023/10/26 01:39:15;;;;;;;;;;;;;;;;;;1927599;28;7009;-63
2023/10/26 01:40:12;;;;;;;;;;;;;;;;;;1927625;28;8149;-64
2023/10/26 01:41:10;;;;;;;;;;;;;;;;;;1927709;28;7046;-65
2023/10/26 01:42:09;;;;;;;;;;;;;;;;;;1927551;28;8016;-66
2023/10/26 01:43:07;;;;;;;;;;;;;;;;;;1927442;28;7048;-63
2023/10/26 01:44:05;;;;;;;;;;;;;;;;;;1919938;28;7092;-65
2023/10/26 01:45:02;;;;;;;;;;;;;;;;;;1920228;28;7009;-63
2023/10/26 01:46:00;;;;;;;;;;;;;;;;;;1926487;28;7045;-66
2023/10/26 01:46:57;;;;;;;;;;;;;;;;;;1928316;28;7009;-65
2023/10/26 01:47:55;;;;;;;;;;;;;;;;;;1927721;28;7021;-65
2023/10/26 01:48:53;;;;;;;;;;;;;;;;;;1927292;28;7126;-65
2023/10/26 01:49:50;;;;;;;;;;;;;;;;;;1927617;28;8104;-66
2023/10/26 01:50:48;;;;;;;;;;;;;;;;;;1927944;28;8109;-65
2023/10/26 01:51:45;;;;;;;;;;;;;;;;;;1927442;28;7042;-65
2023/10/26 01:52:44;;;;;;;;;;;;;;;;;;1927257;28;7160;-66
2023/10/26 01:53:42;;;;;;;;;;;;;;;;;;1927240;28;7077;-65
2023/10/26 01:54:40;;;;;;;;;;;;;;;;;;1927264;28;7013;-66
2023/10/26 01:55:37;;;;;;;;;;;;;;;;;;1927275;28;8154;-66
2023/10/26 01:56:35;;;;;;;;;;;;;;;;;;1928097;28;7013;-65
2023/10/26 01:57:33;;;;;;;;;;;;;;;;;;1927561;28;7041;-66
2023/10/26 01:58:30;;;;;;;;;;;;;;;;;;1927725;28;7013;-66
2023/10/26 01:59:27;;;;;;;;;;;;;;;;;;1927100;28;8035;-66
2023/10/26 02:00:25;;;;;;;;;;;;;;;;;;1927748;28;8340;-66
2023/10/26 02:01:24;;;;;;;;;;;;;;;;;;1927168;28;7163;-65
2023/10/26 02:02:21;;;;;;;;;;;;;;;;;;1927390;28;7283;-66
2023/10/26 02:03:19;;;;;;;;;;;;;;;;;;1927658;28;7959;-65
2023/10/26 02:04:17;;;;;;;;;;;;;;;;;;1927885;28;8342;-67
2023/10/26 02:05:14;;;;;;;;;;;;;;;;;;1924117;28;7013;-65
2023/10/26 02:06:12;;;;;;;;;;;;;;;;;;1924312;28;7106;-65
2023/10/26 02:07:10;;;;;;;;;;;;;;;;;;1926793;28;7045;-65
2023/10/26 02:08:07;;;;;;;;;;;;;;;;;;1927466;28;7092;-65
2023/10/26 02:09:05;;;;;;;;;;;;;;;;;;1927409;28;7092;-65
2023/10/26 02:10:03;;;;;;;;;;;;;;;;;;1926076;28;7042;-65
2023/10/26 02:11:00;;;;;;;;;;;;;;;;;;1921265;28;8089;-66
2023/10/26 02:11:58;;;;;;;;;;;;;;;;;;1926557;28;7005;-66
2023/10/26 02:12:56;;;;;;;;;;;;;;;;;;1927527;28;7096;-65
2023/10/26 02:13:53;;;;;;;;;;;;;;;;;;1927009;28;9066;-65
2023/10/26 02:14:51;;;;;;;;;;;;;;;;;;1927761;28;7045;-66
2023/10/26 02:15:48;;;;;;;;;;;;;;;;;;1927072;28;7152;-65
2023/10/26 02:16:46;;;;;;;;;;;;;;;;;;1927702;28;7006;-66
2023/10/26 02:17:43;;;;;;;;;;;;;;;;;;1923178;28;7010;-65
2023/10/26 02:18:43;;;;;;;;;;;;;;;;;;1923078;28;8551;-66
2023/10/26 02:19:41;;;;;;;;;;;;;;;;;;1928317;28;7009;-66
2023/10/26 02:20:38;;;;;;;;;;;;;;;;;;1926928;28;7105;-66
2023/10/26 02:21:36;;;;;;;;;;;;;;;;;;1927384;28;7013;-65
2023/10/26 02:22:34;;;;;;;;;;;;;;;;;;1927231;28;7017;-66
2023/10/26 02:23:31;;;;;;;;;;;;;;;;;;1927466;28;8268;-66
2023/10/26 02:24:28;;;;;;;;;;;;;;;;;;1927570;28;7103;-66
2023/10/26 02:25:26;;;;;;;;;;;;;;;;;;1927394;28;7120;-65
2023/10/26 02:26:24;;;;;;;;;;;;;;;;;;1923069;28;7013;-66
2023/10/26 02:27:21;;;;;;;;;;;;;;;;;;1925940;28;7021;-65
2023/10/26 02:28:19;;;;;;;;;;;;;;;;;;1927232;28;7196;-65
2023/10/26 02:29:17;;;;;;;;;;;;;;;;;;1928008;28;7088;-66
2023/10/26 02:30:14;;;;;;;;;;;;;;;;;;1925165;28;8253;-65
2023/10/26 02:31:12;;;;;;;;;;;;;;;;;;1927349;28;7009;-66
2023/10/26 02:32:09;;;;;;;;;;;;;;;;;;1926787;28;7386;-65
2023/10/26 02:33:07;;;;;;;;;;;;;;;;;;1927949;28;8012;-65
2023/10/26 02:34:05;;;;;;;;;;;;;;;;;;1927769;28;7006;-66
2023/10/26 02:35:03;;;;;;;;;;;;;;;;;;1927622;28;7101;-65
2023/10/26 02:36:00;;;;;;;;;;;;;;;;;;1927202;28;7218;-65
2023/10/26 02:36:59;;;;;;;;;;;;;;;;;;1927072;28;7005;-65
2023/10/26 02:37:56;;;;;;;;;;;;;;;;;;1927561;28;7009;-66
2023/10/26 02:38:54;;;;;;;;;;;;;;;;;;1927406;28;7021;-66
2023/10/26 02:39:51;;;;;;;;;;;;;;;;;;1928030;28;7021;-65
2023/10/26 02:40:49;;;;;;;;;;;;;;;;;;1927339;28;7096;-66
2023/10/26 02:41:46;;;;;;;;;;;;;;;;;;1927459;28;7427;-66
2023/10/26 02:42:44;;;;;;;;;;;;;;;;;;1926545;28;7029;-65
2023/10/26 02:43:41;;;;;;;;;;;;;;;;;;1926490;28;7013;-65
2023/10/26 02:44:39;;;;;;;;;;;;;;;;;;1921419;28;7092;-66
2023/10/26 02:45:36;;;;;;;;;;;;;;;;;;1924478;28;8103;-65
2023/10/26 02:46:34;;;;;;;;;;;;;;;;;;1921934;28;7128;-66
2023/10/26 02:47:32;;;;;;;;;;;;;;;;;;1919873;28;7017;-65
2023/10/26 02:48:29;;;;;;;;;;;;;;;;;;1927190;28;8016;-66
2023/10/26 02:49:27;;;;;;;;;;;;;;;;;;1927093;28;7137;-66
2023/10/26 02:50:24;;;;;;;;;;;;;;;;;;1926243;28;7111;-66
2023/10/26 02:51:22;;;;;;;;;;;;;;;;;;1927049;28;7013;-65
2023/10/26 02:52:19;;;;;;;;;;;;;;;;;;1923935;28;7310;-65
2023/10/26 02:53:17;;;;;;;;;;;;;;;;;;1927708;28;7366;-66
2023/10/26 02:54:15;;;;;;;;;;;;;;;;;;1927095;28;7013;-67
2023/10/26 02:55:12;;;;;;;;;;;;;;;;;;1927144;28;7009;-66
2023/10/26 02:56:10;;;;;;;;;;;;;;;;;;1927024;28;7129;-66
2023/10/26 02:57:07;;;;;;;;;;;;;;;;;;1926920;28;7133;-65
2023/10/26 02:58:05;;;;;;;;;;;;;;;;;;1926755;28;7013;-66
2023/10/26 02:59:02;;;;;;;;;;;;;;;;;;1927324;28;7116;-65
2023/10/26 03:00:00;;;;;;;;;;;;;;;;;;1927900;28;7156;-65
2023/10/26 03:00:57;;;;;;;;;;;;;;;;;;1923568;28;8006;-66
2023/10/26 03:01:56;;;;;;;;;;;;;;;;;;1926377;28;7128;-65
2023/10/26 03:02:54;;;;;;;;;;;;;;;;;;1926393;28;7104;-65
2023/10/26 03:03:52;;;;;;;;;;;;;;;;;;1926789;28;7013;-66
2023/10/26 03:04:49;;;;;;;;;;;;;;;;;;1927197;28;7057;-66
2023/10/26 03:05:47;;;;;;;;;;;;;;;;;;1927048;28;7141;-65
2023/10/26 03:06:44;;;;;;;;;;;;;;;;;;1927398;28;9356;-66
2023/10/26 03:07:46;;;;;;;;;;;;;;;;;;1927338;28;8129;-66
2023/10/26 03:08:43;;;;;;;;;;;;;;;;;;1927598;28;7065;-65
2023/10/26 03:09:40;;;;;;;;;;;;;;;;;;1927106;28;7042;-66
2023/10/26 03:10:44;;;;;;;;;;;;;;;;;;1910449;28;6792;-64
2023/10/26 03:11:42;;;;;;;;;;;;;;;;;;1895009;28;7085;-69
2023/10/26 03:12:40;;;;;;;;;;;;;;;;;;1896478;28;7221;-64
2023/10/26 03:13:38;;;;;;;;;;;;;;;;;;1895724;28;7042;-64
2023/10/26 03:14:35;;;;;;;;;;;;;;;;;;1895591;28;8025;-63
2023/10/26 03:15:33;;;;;;;;;;;;;;;;;;1897640;28;8063;-64
2023/10/26 03:16:31;;;;;;;;;;;;;;;;;;1903502;28;8055;-64
2023/10/26 03:17:29;;;;;;;;;;;;;;;;;;1903407;28;7269;-64
2023/10/26 03:18:26;;;;;;;;;;;;;;;;;;1898719;28;8107;-64
2023/10/26 03:19:24;;;;;;;;;;;;;;;;;;1898577;28;7140;-64
2023/10/26 03:20:22;;;;;;;;;;;;;;;;;;1900223;28;7018;-64
2023/10/26 03:21:20;;;;;;;;;;;;;;;;;;1895969;28;7013;-64
2023/10/26 03:22:18;;;;;;;;;;;;;;;;;;1900031;28;7018;-64
2023/10/26 03:23:15;;;;;;;;;;;;;;;;;;1895914;28;7017;-64
2023/10/26 03:24:13;;;;;;;;;;;;;;;;;;1897922;28;7013;-64
2023/10/26 03:25:13;;;;;;;;;;;;;;;;;;1896149;28;7045;-64
2023/10/26 03:26:11;;;;;;;;;;;;;;;;;;1894591;28;7078;-64
2023/10/26 03:27:09;;;;;;;;;;;;;;;;;;1896590;28;7017;-64
2023/10/26 03:28:06;;;;;;;;;;;;;;;;;;1903053;28;7206;-64
2023/10/26 03:29:04;;;;;;;;;;;;;;;;;;1898560;28;8085;-64
2023/10/26 03:30:02;;;;;;;;;;;;;;;;;;1896480;28;7013;-64
2023/10/26 03:30:59;;;;;;;;;;;;;;;;;;1894270;28;7025;-64
2023/10/26 03:31:58;;;;;;;;;;;;;;;;;;1897925;28;8041;-64
2023/10/26 03:32:56;;;;;;;;;;;;;;;;;;1900857;28;7009;-63
2023/10/26 03:33:53;;;;;;;;;;;;;;;;;;1895847;28;7093;-64
2023/10/26 03:34:52;;;;;;;;;;;;;;;;;;1900817;28;7009;-64
2023/10/26 03:35:49;;;;;;;;;;;;;;;;;;1899592;28;8079;-64
2023/10/26 03:36:47;;;;;;;;;;;;;;;;;;1902197;28;7046;-64
2023/10/26 03:37:45;;;;;;;;;;;;;;;;;;1901709;28;7044;-65
2023/10/26 03:38:42;;;;;;;;;;;;;;;;;;1896949;28;7046;-64
2023/10/26 03:39:40;;;;;;;;;;;;;;;;;;1898728;28;7018;-64
2023/10/26 03:40:37;;;;;;;;;;;;;;;;;;1895822;28;7113;-64
2023/10/26 03:41:35;;;;;;;;;;;;;;;;;;1895464;28;8048;-64
2023/10/26 03:42:32;;;;;;;;;;;;;;;;;;1901339;28;7006;-65
2023/10/26 03:43:30;;;;;;;;;;;;;;;;;;1894887;28;7001;-64
2023/10/26 03:44:28;;;;;;;;;;;;;;;;;;1902879;28;7144;-65
2023/10/26 03:45:27;;;;;;;;;;;;;;;;;;1898870;28;7033;-64
2023/10/26 03:46:24;;;;;;;;;;;;;;;;;;1895468;28;7084;-65
2023/10/26 03:47:22;;;;;;;;;;;;;;;;;;1895718;28;7147;-65
2023/10/26 03:48:19;;;;;;;;;;;;;;;;;;1897843;28;8323;-65
2023/10/26 03:49:17;;;;;;;;;;;;;;;;;;1896394;28;7065;-64
2023/10/26 03:50:14;;;;;;;;;;;;;;;;;;1895992;28;7005;-65
2023/10/26 03:51:12;;;;;;;;;;;;;;;;;;1896429;28;7384;-64
2023/10/26 03:52:09;;;;;;;;;;;;;;;;;;1905753;28;7005;-65
2023/10/26 03:53:07;;;;;;;;;;;;;;;;;;1907091;28;7038;-65
2023/10/26 03:54:05;;;;;;;;;;;;;;;;;;1896125;28;7017;-64
2023/10/26 03:55:04;;;;;;;;;;;;;;;;;;1895997;28;8040;-64
2023/10/26 03:56:02;;;;;;;;;;;;;;;;;;1897558;28;7133;-65
2023/10/26 03:56:59;;;;;;;;;;;;;;;;;;1895789;28;7021;-64
2023/10/26 03:57:57;;;;;;;;;;;;;;;;;;1901609;28;7025;-65
2023/10/26 03:58:54;;;;;;;;;;;;;;;;;;1895232;28;7323;-65
2023/10/26 03:59:52;;;;;;;;;;;;;;;;;;1895490;28;7215;-65
2023/10/26 04:00:51;;;;;;;;;;;;;;;;;;1897856;28;7203;-64
2023/10/26 04:01:48;;;;;;;;;;;;;;;;;;1902399;28;7009;-65
2023/10/26 04:02:46;;;;;;;;;;;;;;;;;;1902650;28;7186;-65
2023/10/26 04:03:43;;;;;;;;;;;;;;;;;;1903231;28;7017;-64
2023/10/26 04:04:42;;;;;;;;;;;;;;;;;;1900228;28;7168;-65
2023/10/26 04:05:40;;;;;;;;;;;;;;;;;;1898813;28;7108;-64
2023/10/26 04:06:37;;;;;;;;;;;;;;;;;;1898834;28;7536;-65
2023/10/26 04:07:35;;;;;;;;;;;;;;;;;;1900607;28;7017;-64
2023/10/26 04:08:32;;;;;;;;;;;;;;;;;;1902842;28;7017;-64
2023/10/26 04:09:30;;;;;;;;;;;;;;;;;;1899034;28;8531;-64
2023/10/26 04:10:28;;;;;;;;;;;;;;;;;;1896434;28;7017;-66
2023/10/26 04:11:25;;;;;;;;;;;;;;;;;;1902081;28;7093;-65
2023/10/26 04:12:23;;;;;;;;;;;;;;;;;;1895859;28;7128;-64
2023/10/26 04:13:24;;;;;;;;;;;;;;;;;;1895580;28;7117;-64
2023/10/26 04:14:21;;;;;;;;;;;;;;;;;;1895336;28;7116;-64
2023/10/26 04:15:19;;;;;;;;;;;;;;;;;;1895146;28;7088;-64
2023/10/26 04:16:16;;;;;;;;;;;;;;;;;;1894676;28;7006;-64
2023/10/26 04:17:15;;;;;;;;;;;;;;;;;;1899670;28;7141;-64
2023/10/26 04:18:13;;;;;;;;;;;;;;;;;;1902638;28;7308;-65
2023/10/26 04:19:10;;;;;;;;;;;;;;;;;;1897690;28;8054;-64
2023/10/26 04:20:08;;;;;;;;;;;;;;;;;;1897375;28;7246;-65
2023/10/26 04:21:06;;;;;;;;;;;;;;;;;;1902385;28;7088;-64
2023/10/26 04:22:05;;;;;;;;;;;;;;;;;;1892590;28;7372;-64
2023/10/26 04:23:03;;;;;;;;;;;;;;;;;;1891239;28;7076;-65
2023/10/26 04:24:03;;;;;;;;;;;;;;;;;;1896721;28;8023;-65
2023/10/26 04:25:00;;;;;;;;;;;;;;;;;;1894819;28;7319;-65
2023/10/26 04:25:58;;;;;;;;;;;;;;;;;;1898065;28;7196;-64
2023/10/26 04:26:56;;;;;;;;;;;;;;;;;;1895028;28;7089;-65
2023/10/26 04:27:55;;;;;;;;;;;;;;;;;;1895745;28;7013;-65
2023/10/26 04:28:53;;;;;;;;;;;;;;;;;;1895658;28;7025;-65
2023/10/26 04:29:50;;;;;;;;;;;;;;;;;;1897083;28;8021;-66
2023/10/26 04:30:48;;;;;;;;;;;;;;;;;;1889167;28;7105;-65
2023/10/26 04:31:45;;;;;;;;;;;;;;;;;;1893762;28;7050;-65
2023/10/26 04:32:42;;;;;;;;;;;;;;;;;;1897155;28;7033;-65
2023/10/26 04:33:40;;;;;;;;;;;;;;;;;;1893929;28;7013;-65
2023/10/26 04:34:43;;;;;;;;;;;;;;;;;;1890335;28;7100;-64
2023/10/26 04:35:42;;;;;;;;;;;;;;;;;;1892236;28;8047;-66
2023/10/26 04:36:40;;;;;;;;;;;;;;;;;;1897284;28;7017;-65
2023/10/26 04:37:37;;;;;;;;;;;;;;;;;;1895487;28;7106;-66
2023/10/26 04:38:35;;;;;;;;;;;;;;;;;;1890369;28;7093;-66
2023/10/26 04:39:32;;;;;;;;;;;;;;;;;;1891735;28;7054;-65
2023/10/26 04:40:29;;;;;;;;;;;;;;;;;;1897282;28;7037;-66
2023/10/26 04:41:27;;;;;;;;;;;;;;;;;;1896840;28;7046;-65
2023/10/26 04:42:24;;;;;;;;;;;;;;;;;;1891913;28;7017;-65
2023/10/26 04:43:22;;;;;;;;;;;;;;;;;;1894607;28;7202;-65
2023/10/26 04:44:20;;;;;;;;;;;;;;;;;;1891059;28;7225;-64
2023/10/26 04:45:17;;;;;;;;;;;;;;;;;;1896784;28;7054;-65
2023/10/26 04:46:14;;;;;;;;;;;;;;;;;;1897971;28;7092;-65
2023/10/26 04:47:12;;;;;;;;;;;;;;;;;;1890777;28;8043;-65
2023/10/26 04:48:09;;;;;;;;;;;;;;;;;;1894385;28;7372;-65
2023/10/26 04:49:07;;;;;;;;;;;;;;;;;;1890749;28;7050;-65
2023/10/26 04:50:05;;;;;;;;;;;;;;;;;;1890698;28;7021;-65
2023/10/26 04:51:02;;;;;;;;;;;;;;;;;;1897893;28;7112;-65
2023/10/26 04:52:00;;;;;;;;;;;;;;;;;;1896591;28;7141;-65
2023/10/26 04:52:58;;;;;;;;;;;;;;;;;;1889929;28;7014;-65
2023/10/26 04:53:55;;;;;;;;;;;;;;;;;;1889906;28;7005;-65
2023/10/26 04:54:53;;;;;;;;;;;;;;;;;;1888691;28;7017;-65
2023/10/26 04:55:50;;;;;;;;;;;;;;;;;;1891500;28;7129;-65
2023/10/26 04:56:47;;;;;;;;;;;;;;;;;;1888319;28;8066;-65
2023/10/26 04:57:45;;;;;;;;;;;;;;;;;;1889777;28;7193;-65
2023/10/26 04:58:43;;;;;;;;;;;;;;;;;;1889781;28;7045;-65
2023/10/26 04:59:41;;;;;;;;;;;;;;;;;;1890365;28;8098;-65
2023/10/26 05:00:38;;;;;;;;;;;;;;;;;;1898211;28;8426;-65
2023/10/26 05:01:35;;;;;;;;;;;;;;;;;;1898527;28;7029;-65
2023/10/26 05:02:33;;;;;;;;;;;;;;;;;;1894291;28;7046;-65
2023/10/26 05:03:30;;;;;;;;;;;;;;;;;;1893374;28;7050;-65
2023/10/26 05:04:28;;;;;;;;;;;;;;;;;;1889426;28;7093;-65
2023/10/26 05:05:25;;;;;;;;;;;;;;;;;;1891051;28;7128;-65
2023/10/26 05:06:23;;;;;;;;;;;;;;;;;;1890362;28;8079;-65
2023/10/26 05:07:20;;;;;;;;;;;;;;;;;;1890336;28;7034;-64
2023/10/26 05:08:18;;;;;;;;;;;;;;;;;;1890190;28;7057;-65
2023/10/26 05:09:15;;;;;;;;;;;;;;;;;;1894921;28;7009;-65
2023/10/26 05:10:13;;;;;;;;;;;;;;;;;;1897310;28;7010;-65
2023/10/26 05:11:10;;;;;;;;;;;;;;;;;;1890606;28;7121;-65
2023/10/26 05:12:07;;;;;;;;;;;;;;;;;;1890257;28;7014;-65
2023/10/26 05:13:05;;;;;;;;;;;;;;;;;;1889691;28;7133;-65
2023/10/26 05:14:04;;;;;;;;;;;;;;;;;;1890458;28;7030;-65
2023/10/26 05:15:01;;;;;;;;;;;;;;;;;;1894413;28;7033;-65
2023/10/26 05:16:02;;;;;;;;;;;;;;;;;;1891876;28;7041;-65
2023/10/26 05:16:59;;;;;;;;;;;;;;;;;;1892217;28;7339;-65
2023/10/26 05:17:56;;;;;;;;;;;;;;;;;;1897540;28;7009;-65
2023/10/26 05:18:54;;;;;;;;;;;;;;;;;;1891405;28;7014;-66
2023/10/26 05:19:52;;;;;;;;;;;;;;;;;;1890733;28;7089;-65
2023/10/26 05:20:49;;;;;;;;;;;;;;;;;;1889930;28;7161;-66
2023/10/26 05:21:47;;;;;;;;;;;;;;;;;;1892786;28;7006;-65
2023/10/26 05:22:44;;;;;;;;;;;;;;;;;;1896427;28;7951;-65
2023/10/26 05:23:43;;;;;;;;;;;;;;;;;;1890487;28;7013;-65
2023/10/26 05:24:42;;;;;;;;;;;;;;;;;;1891591;28;7097;-65
2023/10/26 05:25:39;;;;;;;;;;;;;;;;;;1889194;28;7030;-66
2023/10/26 05:26:37;;;;;;;;;;;;;;;;;;1891270;28;7156;-65
2023/10/26 05:27:34;;;;;;;;;;;;;;;;;;1895771;28;7013;-65
2023/10/26 05:28:33;;;;;;;;;;;;;;;;;;1895733;28;7010;-64
2023/10/26 05:29:31;;;;;;;;;;;;;;;;;;1892331;28;8047;-64
2023/10/26 05:30:28;;;;;;;;;;;;;;;;;;1896509;28;7097;-65
2023/10/26 05:31:26;;;;;;;;;;;;;;;;;;1896357;28;7038;-66
2023/10/26 05:32:23;;;;;;;;;;;;;;;;;;1896368;28;7038;-65
2023/10/26 05:33:20;;;;;;;;;;;;;;;;;;1896794;28;7018;-65
2023/10/26 05:34:18;;;;;;;;;;;;;;;;;;1897430;28;7010;-65
2023/10/26 05:35:15;;;;;;;;;;;;;;;;;;1897247;28;7013;-65
2023/10/26 05:36:13;;;;;;;;;;;;;;;;;;1897731;28;7092;-65
2023/10/26 05:37:10;;;;;;;;;;;;;;;;;;1893301;28;7010;-65
2023/10/26 05:38:09;;;;;;;;;;;;;;;;;;1895296;28;8052;-65
2023/10/26 05:39:07;;;;;;;;;;;;;;;;;;1891828;28;7010;-65
2023/10/26 05:40:05;;;;;;;;;;;;;;;;;;1890094;28;7419;-65
2023/10/26 05:41:03;;;;;;;;;;;;;;;;;;1897599;28;7034;-65
2023/10/26 05:42:03;;;;;;;;;;;;;;;;;;1892337;28;7010;-65
2023/10/26 05:43:01;;;;;;;;;;;;;;;;;;1896292;28;7046;-65
2023/10/26 05:43:59;;;;;;;;;;;;;;;;;;1896460;28;7010;-65
2023/10/26 05:44:56;;;;;;;;;;;;;;;;;;1889558;28;7033;-66
2023/10/26 05:46:01;;;;;;;;;;;;;;;;;;1889664;28;7013;-65
2023/10/26 05:47:01;;;;;;;;;;;;;;;;;;1891743;28;7010;-65
2023/10/26 05:47:59;;;;;;;;;;;;;;;;;;1891433;28;7359;-65
2023/10/26 05:48:57;;;;;;;;;;;;;;;;;;1897571;28;7941;-65
2023/10/26 05:49:54;;;;;;;;;;;;;;;;;;1898072;28;7017;-66
2023/10/26 05:50:52;;;;;;;;;;;;;;;;;;1892131;28;7220;-65
2023/10/26 05:51:49;;;;;;;;;;;;;;;;;;1897210;28;8058;-65
2023/10/26 05:52:47;;;;;;;;;;;;;;;;;;1893802;28;7009;-65
2023/10/26 05:53:45;;;;;;;;;;;;;;;;;;1889995;28;8189;-66
2023/10/26 05:54:42;;;;;;;;;;;;;;;;;;1890437;28;8083;-66
2023/10/26 05:55:40;;;;;;;;;;;;;;;;;;1890744;28;7110;-65
2023/10/26 05:56:37;;;;;;;;;;;;;;;;;;1888755;28;7014;-65
2023/10/26 05:57:35;;;;;;;;;;;;;;;;;;1894669;28;7009;-65
2023/10/26 05:58:32;;;;;;;;;;;;;;;;;;1897324;28;7013;-65
2023/10/26 05:59:30;;;;;;;;;;;;;;;;;;1897249;28;7006;-66
2023/10/26 06:00:27;;;;;;;;;;;;;;;;;;1894554;28;7369;-65
2023/10/26 06:01:25;;;;;;;;;;;;;;;;;;1889847;28;7018;-65
2023/10/26 06:02:22;;;;;;;;;;;;;;;;;;1889545;28;7124;-65
2023/10/26 06:03:21;;;;;;;;;;;;;;;;;;1890397;28;7109;-65
2023/10/26 06:04:19;;;;;;;;;;;;;;;;;;1889891;28;7121;-64
2023/10/26 06:05:16;;;;;;;;;;;;;;;;;;1890323;28;7034;-66
2023/10/26 06:06:14;;;;;;;;;;;;;;;;;;1891518;28;7037;-65
2023/10/26 06:07:11;;;;;;;;;;;;;;;;;;1895792;28;7029;-65
2023/10/26 06:08:09;;;;;;;;;;;;;;;;;;1897324;28;7088;-65
2023/10/26 06:09:06;;;;;;;;;;;;;;;;;;1897107;28;7116;-65
2023/10/26 06:10:05;;;;;;;;;;;;;;;;;;1893370;28;7017;-65
2023/10/26 06:11:03;;;;;;;;;;;;;;;;;;1889670;28;7130;-65
2023/10/26 06:12:01;;;;;;;;;;;;;;;;;;1890261;28;7050;-66
2023/10/26 06:12:58;;;;;;;;;;;;;;;;;;1891636;28;7046;-66
2023/10/26 06:13:55;;;;;;;;;;;;;;;;;;1891098;28;7009;-65
2023/10/26 06:14:53;;;;;;;;;;;;;;;;;;1893424;28;7018;-65
2023/10/26 06:15:50;;;;;;;;;;;;;;;;;;1891926;28;7014;-65
2023/10/26 06:16:48;;;;;;;;;;;;;;;;;;1889558;28;7092;-66
2023/10/26 06:17:45;;;;;;;;;;;;;;;;;;1890152;28;7163;-64
2023/10/26 06:18:43;;;;;;;;;;;;;;;;;;1890525;28;7014;-66
2023/10/26 06:19:40;;;;;;;;;;;;;;;;;;1894444;28;7018;-65
2023/10/26 06:20:38;;;;;;;;;;;;;;;;;;1889304;28;7391;-64
2023/10/26 06:21:35;;;;;;;;;;;;;;;;;;1891247;28;7014;-65
2023/10/26 06:22:33;;;;;;;;;;;;;;;;;;1897175;28;7120;-66
2023/10/26 06:23:30;;;;;;;;;;;;;;;;;;1897556;28;7356;-65
2023/10/26 06:24:28;;;;;;;;;;;;;;;;;;1891216;28;7009;-65
2023/10/26 06:25:25;;;;;;;;;;;;;;;;;;1890320;28;7404;-64
2023/10/26 06:26:23;;;;;;;;;;;;;;;;;;1889756;28;8039;-66
2023/10/26 06:27:20;;;;;;;;;;;;;;;;;;1889476;28;8039;-65
2023/10/26 06:28:18;;;;;;;;;;;;;;;;;;1888680;28;7096;-65
2023/10/26 06:29:15;;;;;;;;;;;;;;;;;;1893350;28;7038;-65
2023/10/26 06:30:15;;;;;;;;;;;;;;;;;;1892461;28;7046;-64
2023/10/26 06:31:16;;;;;;;;;;;;;;;;;;1890682;28;7328;-66
2023/10/26 06:32:13;;;;;;;;;;;;;;;;;;1894507;28;7017;-65
2023/10/26 06:33:12;;;;;;;;;;;;;;;;;;1891536;28;7108;-65
2023/10/26 06:34:10;;;;;;;;;;;;;;;;;;1889535;28;7017;-65
2023/10/26 06:35:10;;;;;;;;;;;;;;;;;;1889469;28;7070;-65
2023/10/26 06:36:08;;;;;;;;;;;;;;;;;;1889815;28;7010;-66
2023/10/26 06:37:06;;;;;;;;;;;;;;;;;;1893060;28;7088;-65
2023/10/26 06:38:03;;;;;;;;;;;;;;;;;;1889695;28;7013;-65
2023/10/26 06:39:02;;;;;;;;;;;;;;;;;;1895066;28;7096;-68
2023/10/26 06:39:59;;;;;;;;;;;;;;;;;;1897278;28;7088;-65
2023/10/26 06:40:57;;;;;;;;;;;;;;;;;;1893690;28;7096;-65
2023/10/26 06:41:56;;;;;;;;;;;;;;;;;;1891565;28;7013;-65